LFMT/MPL METAR and TAF weather

Enter ICAO airport designator
Station Type Date Time Source
LFMT METAR 2021/09/28 05:00 UTC NOAA

LFMT 280500Z AUTO 03009KT CAVOK 16/12 Q1021 NOSIG


Station Type Date Time Source
LFMT Decoded METAR 2021/09/28 05:00 UTC NOAA

Montpellier, France (LFMT) 43-35N 003-58E 6M
Sep 28, 2021 - 01:00 AM EDT / 2021.09.28 0500 UTC
Wind: from the NNE (030 degrees) at 10 MPH (9 KT):0
Visibility: greater than 7 mile(s):0
Temperature: 60 F (16 C)
Dew Point: 53 F (12 C)
Relative Humidity: 77%
Pressure (altimeter): 30.15 in. Hg (1021 hPa)
ob: LFMT 280500Z AUTO 03009KT CAVOK 16/12 Q1021 NOSIG
cycle: 5

Station Type Date Time Source
LFMT TAF 2021/09/28 03:26 UTC NOAA

TAF LFMT 280200Z 2803/2903 34006KT CAVOK
BECMG 2810/2813 19010KT
BECMG 2816/2818 VRB03KT

Example: see airport list